Terminal Aerodrome Forecast
Issued by NWS Wilmington, OH

Current Version | Previous Version | Graphics & Text | Print | Product List | Glossary On
Versions: 1 2 3 4 5 6 7 8 9 10 11 12 13 14 15 16 17 18 19 20 21 22 23 24 25 26 27 28 29
000
FTUS41 KILN 220017 AAA
TAFCVG
TAF AMD
KCVG 220017Z 2200/2306 35007KT P6SM -RA BKN060
     FM220300 01009KT P6SM -RA OVC050
     FM220700 02009KT P6SM VCSH BKN050
     FM221100 04012KT 5SM -SHRA OVC045
     FM221700 05014KT 5SM -SHRA OVC025
     FM222000 05014KT P6SM OVC040=

USA.gov is the U.S. government's official web portal to all federal, state and local government web resources and services.